Time;durP1;ratioP1;P1;durP2;ratioP2;P2;SDS_P1;SDS_P2;PMS_P1;PMS_P2;Temp;Humidity;BMP_temperature;BMP_pressure;BME280_temperature;BME280_humidity;BME280_pressure;Samples;Min_cycle;Max_cycle;Signal;HPM_P1;HPM_P2
2022/09/13 00:00:36;;;;;;;18.35;14.45;;;18.60;99.90;;;;;;5052853;28;20472;-43
2022/09/13 00:03:02;;;;;;;19.40;14.75;;;18.60;99.90;;;;;;5052901;28;20106;-44
2022/09/13 00:05:27;;;;;;;18.27;14.45;;;18.50;99.90;;;;;;5052594;28;20025;-44
2022/09/13 00:07:54;;;;;;;17.83;14.77;;;18.50;99.90;;;;;;5052288;28;20124;-44
2022/09/13 00:10:19;;;;;;;19.65;16.17;;;18.50;99.90;;;;;;5051664;28;20102;-43
2022/09/13 00:12:47;;;;;;;21.10;16.77;;;18.50;99.90;;;;;;5050008;28;20092;-43
2022/09/13 00:15:12;;;;;;;21.35;16.55;;;18.50;99.90;;;;;;5052001;28;20127;-43
2022/09/13 00:17:38;;;;;;;18.90;15.18;;;18.50;99.90;;;;;;5052358;28;20175;-43
2022/09/13 00:20:04;;;;;;;19.85;15.75;;;18.60;99.90;;;;;;5047809;28;20040;-48
2022/09/13 00:22:30;;;;;;;21.98;16.60;;;18.60;99.90;;;;;;5033834;28;20056;-45
2022/09/13 00:24:56;;;;;;;19.48;15.65;;;18.70;99.90;;;;;;5052142;28;20402;-43
2022/09/13 00:27:21;;;;;;;19.98;15.52;;;18.70;99.90;;;;;;5051992;28;20251;-44
2022/09/13 00:29:47;;;;;;;21.90;17.40;;;18.60;99.90;;;;;;5051566;28;20040;-43
2022/09/13 00:32:13;;;;;;;21.27;15.80;;;18.70;99.90;;;;;;5051946;28;20037;-45
2022/09/13 00:34:38;;;;;;;21.52;16.63;;;18.70;99.90;;;;;;5051353;28;20400;-44
2022/09/13 00:37:04;;;;;;;20.98;16.08;;;18.80;99.90;;;;;;5051899;28;20033;-46
2022/09/13 00:39:30;;;;;;;20.17;15.55;;;18.70;99.90;;;;;;5051775;28;20060;-44
2022/09/13 00:41:55;;;;;;;18.35;14.88;;;18.60;99.90;;;;;;5051094;28;20124;-45
2022/09/13 00:44:51;;;;;;;17.85;14.63;;;18.70;99.90;;;;;;5051652;28;20047;-47
2022/09/13 00:47:22;;;;;;;20.38;15.70;;;18.70;99.90;;;;;;5051978;28;20495;-45
2022/09/13 00:49:53;;;;;;;18.52;14.82;;;18.70;99.90;;;;;;5051291;28;20041;-45
2022/09/13 00:52:21;;;;;;;18.92;14.45;;;18.80;99.90;;;;;;5051539;28;20051;-43
2022/09/13 00:54:55;;;;;;;18.73;15.40;;;18.70;99.90;;;;;;5051397;28;20049;-46
2022/09/13 00:57:23;;;;;;;19.77;14.60;;;18.80;99.90;;;;;;5051617;28;20033;-46
2022/09/13 01:00:13;;;;;;;18.23;14.93;;;18.70;99.90;;;;;;5051592;28;20040;-43
2022/09/13 01:03:05;;;;;;;19.15;14.05;;;18.80;99.90;;;;;;5050179;28;20025;-46
2022/09/13 01:05:45;;;;;;;18.13;14.63;;;18.70;99.90;;;;;;5051517;28;20605;-47
2022/09/13 01:08:21;;;;;;;15.18;12.55;;;18.70;99.90;;;;;;5051568;28;20041;-45
2022/09/13 01:10:48;;;;;;;16.00;13.02;;;18.70;99.90;;;;;;5051041;28;20040;-46
2022/09/13 01:13:26;;;;;;;17.42;12.88;;;18.80;99.90;;;;;;5049752;28;20057;-45
2022/09/13 01:15:52;;;;;;;16.52;13.35;;;18.80;99.90;;;;;;5051015;28;20056;-44
2022/09/13 01:18:17;;;;;;;14.75;11.77;;;18.80;99.90;;;;;;5050967;28;20033;-44
2022/09/13 01:21:08;;;;;;;14.35;12.70;;;18.70;99.90;;;;;;5051278;28;20045;-45
2022/09/13 01:23:50;;;;;;;16.98;12.18;;;18.60;99.90;;;;;;5051200;28;20438;-44
2022/09/13 01:26:25;;;;;;;15.95;12.60;;;18.70;99.90;;;;;;5050938;28;20045;-47
2022/09/13 01:29:08;;;;;;;18.08;13.32;;;18.60;99.90;;;;;;5051154;28;20045;-45
2022/09/13 01:32:04;;;;;;;16.05;12.70;;;18.70;99.90;;;;;;5050909;28;20480;-47
2022/09/13 01:34:47;;;;;;;17.38;13.25;;;18.60;99.90;;;;;;5050567;28;20041;-48
2022/09/13 01:37:36;;;;;;;18.60;14.25;;;18.50;99.90;;;;;;5050907;28;20496;-43
2022/09/13 01:40:17;;;;;;;17.33;14.52;;;18.50;99.90;;;;;;5050574;28;20049;-45
2022/09/13 01:43:06;;;;;;;18.08;14.63;;;18.50;99.90;;;;;;5050618;28;20037;-45
2022/09/13 01:45:37;;;;;;;17.65;14.23;;;18.40;99.90;;;;;;5011561;28;20428;-45
2022/09/13 01:48:14;;;;;;;19.15;14.80;;;18.40;99.90;;;;;;5051095;28;20256;-47
2022/09/13 01:50:51;;;;;;;21.05;15.57;;;18.50;99.90;;;;;;5050838;28;20041;-44
2022/09/13 01:53:31;;;;;;;19.67;15.82;;;18.40;99.90;;;;;;5049832;28;20037;-46
2022/09/13 01:56:03;;;;;;;18.17;14.52;;;18.40;99.90;;;;;;5050665;28;20411;-45
2022/09/13 01:58:44;;;;;;;20.52;15.20;;;18.40;99.90;;;;;;5050588;28;20037;-45
2022/09/13 02:01:17;;;;;;;20.10;14.68;;;18.50;99.90;;;;;;5050990;28;20094;-45
2022/09/13 02:03:57;;;;;;;18.90;15.15;;;18.40;99.90;;;;;;5048930;28;20059;-44
2022/09/13 02:06:40;;;;;;;19.63;14.75;;;18.50;99.90;;;;;;5050685;28;20037;-46
2022/09/13 02:09:19;;;;;;;17.70;14.55;;;18.40;99.90;;;;;;5050343;28;20041;-49
2022/09/13 02:11:50;;;;;;;17.85;14.27;;;18.30;99.90;;;;;;5049852;28;20091;-46
2022/09/13 02:14:19;;;;;;;19.45;15.00;;;18.40;99.90;;;;;;5050150;28;20060;-48
2022/09/13 02:16:52;;;;;;;19.02;14.90;;;18.30;99.90;;;;;;5050608;28;20025;-47
2022/09/13 02:19:41;;;;;;;19.23;15.32;;;18.40;99.90;;;;;;5031406;28;20120;-46
2022/09/13 02:22:09;;;;;;;19.85;14.70;;;18.30;99.90;;;;;;5001681;28;20072;-48
2022/09/13 02:24:44;;;;;;;18.05;15.43;;;18.40;99.90;;;;;;5050437;28;20061;-48
2022/09/13 02:27:14;;;;;;;20.05;14.93;;;18.30;99.90;;;;;;5050596;28;20218;-47
2022/09/13 02:29:44;;;;;;;17.92;14.88;;;18.30;99.90;;;;;;5050463;28;20126;-46
2022/09/13 02:32:21;;;;;;;18.73;15.45;;;18.30;99.90;;;;;;5050405;28;20036;-46
2022/09/13 02:34:52;;;;;;;17.50;14.90;;;18.30;99.90;;;;;;5034183;28;20270;-45
2022/09/13 02:37:19;;;;;;;18.83;15.55;;;18.40;99.90;;;;;;5054339;28;20045;-47
2022/09/13 02:39:55;;;;;;;16.60;14.10;;;18.40;99.90;;;;;;5053896;28;20115;-44
2022/09/13 02:42:40;;;;;;;20.60;15.10;;;18.30;99.90;;;;;;5053844;28;20519;-44
2022/09/13 02:45:07;;;;;;;18.02;14.68;;;18.30;99.90;;;;;;5053666;28;20044;-48
2022/09/13 02:47:59;;;;;;;17.35;14.20;;;18.30;99.90;;;;;;5054278;28;20037;-44
2022/09/13 02:50:54;;;;;;;18.60;14.70;;;18.30;99.90;;;;;;5053769;28;20411;-47
2022/09/13 02:53:28;;;;;;;19.13;16.17;;;18.40;99.90;;;;;;5054165;28;20781;-46
2022/09/13 02:56:09;;;;;;;18.65;15.88;;;18.30;99.90;;;;;;5053509;28;20048;-45
2022/09/13 02:58:56;;;;;;;21.83;16.13;;;18.40;99.90;;;;;;5053929;28;20037;-45
2022/09/13 03:01:23;;;;;;;21.70;16.92;;;18.40;99.90;;;;;;5053850;28;20025;-46
2022/09/13 03:03:52;;;;;;;20.92;16.85;;;18.20;99.90;;;;;;5053362;28;20091;-46
2022/09/13 03:06:26;;;;;;;20.63;17.52;;;18.20;99.90;;;;;;5053788;28;20480;-47
2022/09/13 03:08:55;;;;;;;21.02;17.17;;;18.30;99.90;;;;;;5035623;28;20464;-48
2022/09/13 03:11:32;;;;;;;23.65;18.52;;;18.20;99.90;;;;;;5035396;28;20048;-46
2022/09/13 03:14:30;;;;;;;23.45;18.35;;;18.40;99.90;;;;;;5052899;28;20132;-47
2022/09/13 03:17:05;;;;;;;24.20;17.60;;;18.20;99.90;;;;;;4998419;28;20041;-50
2022/09/13 03:19:58;;;;;;;24.73;18.52;;;18.40;99.90;;;;;;5053117;28;20037;-49
2022/09/13 03:22:57;;;;;;;23.95;18.67;;;18.30;99.90;;;;;;5053431;28;20037;-46
2022/09/13 03:25:41;;;;;;;24.60;18.95;;;18.30;99.90;;;;;;5053136;28;20111;-47
2022/09/13 03:28:28;;;;;;;26.20;19.10;;;18.30;99.90;;;;;;5052993;28;20040;-47
2022/09/13 03:31:04;;;;;;;26.10;18.92;;;18.20;99.90;;;;;;5035044;28;20118;-45
2022/09/13 03:33:52;;;;;;;24.90;18.60;;;18.30;99.90;;;;;;5053161;28;20033;-47
2022/09/13 03:36:32;;;;;;;23.40;18.48;;;18.20;99.90;;;;;;5052662;28;20163;-44
2022/09/13 03:39:42;;;;;;;24.88;19.38;;;18.20;99.90;;;;;;5052661;28;20037;-49
2022/09/13 03:42:22;;;;;;;23.63;18.60;;;18.20;99.90;;;;;;5006015;28;20048;-49
2022/09/13 03:44:51;;;;;;;24.40;18.15;;;18.30;99.90;;;;;;5052471;28;20222;-45
2022/09/13 03:47:18;;;;;;;23.33;18.98;;;18.20;99.90;;;;;;5051552;28;20040;-49
2022/09/13 03:49:44;;;;;;;23.35;18.88;;;18.20;99.90;;;;;;5052484;28;20045;-47
2022/09/13 03:52:11;;;;;;;21.42;18.02;;;18.20;99.90;;;;;;5052673;28;20040;-47
2022/09/13 03:54:38;;;;;;;23.23;17.42;;;18.20;99.90;;;;;;5052203;28;20040;-48
2022/09/13 03:57:11;;;;;;;22.88;18.00;;;18.30;99.90;;;;;;5052599;28;20037;-44
2022/09/13 03:59:41;;;;;;;24.35;18.98;;;18.40;99.90;;;;;;5052324;28;20033;-50
2022/09/13 04:02:10;;;;;;;23.17;18.42;;;18.40;99.90;;;;;;5051537;28;20033;-45
2022/09/13 04:04:40;;;;;;;21.50;17.65;;;18.30;99.90;;;;;;5052186;28;20056;-47
2022/09/13 04:07:07;;;;;;;24.30;17.60;;;18.30;99.90;;;;;;5034519;28;20380;-45
2022/09/13 04:09:33;;;;;;;20.33;17.38;;;18.40;99.90;;;;;;5052505;28;20472;-47
2022/09/13 04:11:58;;;;;;;25.83;16.48;;;18.40;99.90;;;;;;5051990;28;20059;-49
2022/09/13 04:14:25;;;;;;;17.85;15.15;;;18.20;99.90;;;;;;5051910;28;20080;-47
2022/09/13 04:16:53;;;;;;;19.55;16.60;;;18.20;99.90;;;;;;5050901;28;20072;-48
2022/09/13 04:19:19;;;;;;;21.52;17.10;;;18.40;99.90;;;;;;5052110;28;20033;-44
2022/09/13 04:21:49;;;;;;;21.27;17.00;;;18.20;99.90;;;;;;5034519;28;20036;-45
2022/09/13 04:24:17;;;;;;;22.23;18.25;;;18.20;99.90;;;;;;5052304;28;20446;-46
2022/09/13 04:26:44;;;;;;;23.33;17.27;;;18.30;99.90;;;;;;5052294;28;20483;-49
2022/09/13 04:29:10;;;;;;;22.63;18.00;;;18.10;99.90;;;;;;5051592;28;20076;-44
2022/09/13 04:31:36;;;;;;;20.95;17.95;;;18.20;99.90;;;;;;5052075;28;20068;-47
2022/09/13 04:34:03;;;;;;;23.30;18.33;;;18.10;99.90;;;;;;5051797;28;20063;-48
2022/09/13 04:36:28;;;;;;;25.65;18.20;;;18.30;99.90;;;;;;5016354;28;20120;-45
2022/09/13 04:38:54;;;;;;;20.73;17.58;;;18.10;99.90;;;;;;5052093;28;20119;-47
2022/09/13 04:41:20;;;;;;;21.75;16.65;;;18.20;99.90;;;;;;5051204;28;20087;-46
2022/09/13 04:43:49;;;;;;;21.58;16.40;;;18.10;99.90;;;;;;5052020;28;20500;-48
2022/09/13 04:46:16;;;;;;;19.27;16.05;;;18.10;99.90;;;;;;5051321;28;20048;-44
2022/09/13 04:48:41;;;;;;;21.58;16.50;;;18.10;99.90;;;;;;5051762;28;20480;-48
2022/09/13 04:51:08;;;;;;;19.42;16.48;;;18.20;99.90;;;;;;5051480;28;20051;-45
2022/09/13 04:53:34;;;;;;;18.85;16.33;;;18.20;99.90;;;;;;5051387;28;20442;-46
2022/09/13 04:56:01;;;;;;;20.85;15.55;;;18.10;99.90;;;;;;5051701;28;20033;-46
2022/09/13 04:58:27;;;;;;;18.15;15.48;;;18.20;99.90;;;;;;5051239;28;20072;-46
2022/09/13 05:00:55;;;;;;;19.45;15.98;;;18.20;99.90;;;;;;5051369;28;20073;-48
2022/09/13 05:03:21;;;;;;;17.55;14.30;;;18.20;99.90;;;;;;5051075;28;20048;-49
2022/09/13 05:05:47;;;;;;;17.50;14.07;;;18.30;99.90;;;;;;5051196;28;20045;-46
2022/09/13 05:08:13;;;;;;;16.13;12.20;;;18.20;99.90;;;;;;5051443;28;20498;-45
2022/09/13 05:10:39;;;;;;;14.07;9.77;;;18.10;99.90;;;;;;5051304;28;20108;-47
2022/09/13 05:13:04;;;;;;;12.43;8.23;;;18.10;99.90;;;;;;5049221;28;20049;-51
2022/09/13 05:15:30;;;;;;;9.93;6.60;;;18.20;99.90;;;;;;5011766;28;20054;-45
2022/09/13 05:17:56;;;;;;;13.73;6.40;;;18.20;99.90;;;;;;5011715;28;20389;-46
2022/09/13 05:20:21;;;;;;;11.38;6.40;;;18.20;99.90;;;;;;5011394;28;20104;-47
2022/09/13 05:22:47;;;;;;;10.27;6.07;;;18.30;99.90;;;;;;5011483;28;20209;-46
2022/09/13 05:25:13;;;;;;;9.27;5.80;;;18.30;99.90;;;;;;5011300;28;20473;-44
2022/09/13 05:27:38;;;;;;;8.52;5.50;;;18.30;99.90;;;;;;5011861;28;20045;-47
2022/09/13 05:30:05;;;;;;;10.10;6.18;;;18.10;99.90;;;;;;5011312;28;20179;-47
2022/09/13 05:32:31;;;;;;;9.38;4.93;;;18.10;99.90;;;;;;5011618;28;20065;-47
2022/09/13 05:34:57;;;;;;;10.90;5.78;;;18.10;99.90;;;;;;5011128;28;20150;-46
2022/09/13 05:37:22;;;;;;;9.52;5.22;;;18.30;99.90;;;;;;5009964;28;20146;-48
2022/09/13 05:39:48;;;;;;;13.98;5.22;;;18.20;99.90;;;;;;5011208;28;20042;-49
2022/09/13 05:42:13;;;;;;;9.85;5.03;;;18.20;99.90;;;;;;5010898;28;20038;-46
2022/09/13 05:44:39;;;;;;;10.85;4.72;;;18.20;99.90;;;;;;5011229;28;20388;-49
2022/09/13 05:47:05;;;;;;;8.82;3.85;;;18.00;99.90;;;;;;5010994;28;20046;-50
2022/09/13 05:49:31;;;;;;;6.95;3.22;;;18.10;99.90;;;;;;5011118;28;20030;-47
2022/09/13 05:51:56;;;;;;;9.10;3.65;;;18.10;99.90;;;;;;5009727;28;20535;-47
2022/09/13 05:54:22;;;;;;;7.20;3.30;;;18.10;99.90;;;;;;5011134;28;20033;-47
2022/09/13 05:56:48;;;;;;;6.38;3.30;;;18.20;99.90;;;;;;5010979;28;20073;-46
2022/09/13 05:59:13;;;;;;;6.38;2.95;;;18.10;99.90;;;;;;5011090;28;20045;-47
2022/09/13 06:01:40;;;;;;;7.13;2.47;;;18.10;99.90;;;;;;5009452;28;20065;-47
2022/09/13 06:04:06;;;;;;;7.10;2.22;;;17.90;99.90;;;;;;5010612;28;20041;-48
2022/09/13 06:06:34;;;;;;;7.30;2.35;;;18.10;99.90;;;;;;5010841;28;20128;-47
2022/09/13 06:08:59;;;;;;;5.85;2.15;;;18.00;99.90;;;;;;5011438;28;20037;-47
2022/09/13 06:11:25;;;;;;;5.68;1.95;;;18.00;99.90;;;;;;5013235;28;20042;-48
2022/09/13 06:13:52;;;;;;;5.65;1.90;;;18.00;99.90;;;;;;5023246;28;20056;-45
2022/09/13 06:16:18;;;;;;;4.88;2.08;;;17.90;99.90;;;;;;5019443;28;20044;-50
2022/09/13 06:18:44;;;;;;;6.45;2.05;;;18.10;99.90;;;;;;5053383;28;20041;-48
2022/09/13 06:21:16;;;;;;;6.40;2.35;;;18.10;99.90;;;;;;5048956;28;20040;-47
2022/09/13 06:23:47;;;;;;;8.13;1.90;;;18.10;99.90;;;;;;5046488;28;20041;-47
2022/09/13 06:26:15;;;;;;;6.28;1.83;;;18.10;99.90;;;;;;5046436;28;20059;-46
2022/09/13 06:28:41;;;;;;;6.95;1.83;;;18.00;99.90;;;;;;5042579;28;20071;-47
2022/09/13 06:31:09;;;;;;;5.32;1.73;;;18.20;99.90;;;;;;5045508;28;20048;-47
2022/09/13 06:33:38;;;;;;;3.78;1.45;;;18.20;99.90;;;;;;5045459;28;20037;-44
2022/09/13 06:36:06;;;;;;;5.88;1.65;;;18.10;99.90;;;;;;5045596;28;20033;-47
2022/09/13 06:38:32;;;;;;;5.45;1.70;;;18.10;99.90;;;;;;5045083;28;20035;-45
2022/09/13 06:41:04;;;;;;;6.32;1.92;;;18.10;99.90;;;;;;5045418;28;20165;-47
2022/09/13 06:43:30;;;;;;;3.85;1.80;;;18.00;99.90;;;;;;5046087;28;20475;-48
2022/09/13 06:46:07;;;;;;;4.60;1.42;;;18.20;99.90;;;;;;5046746;28;20396;-48
2022/09/13 06:48:35;;;;;;;4.32;1.50;;;18.00;99.90;;;;;;5045784;28;20503;-47
2022/09/13 06:51:02;;;;;;;7.53;1.63;;;18.10;99.90;;;;;;5042530;28;20548;-45
2022/09/13 06:53:29;;;;;;;4.10;1.40;;;18.10;99.90;;;;;;5042679;28;20053;-45
2022/09/13 06:56:05;;;;;;;6.47;1.42;;;18.20;99.90;;;;;;5040775;28;20091;-45
2022/09/13 06:58:32;;;;;;;4.05;1.35;;;18.20;99.90;;;;;;5045236;28;20477;-49
2022/09/13 07:01:15;;;;;;;4.25;1.35;;;18.10;99.90;;;;;;5042285;28;20033;-46
2022/09/13 07:03:44;;;;;;;5.72;1.20;;;18.30;99.90;;;;;;5034980;28;20047;-46
2022/09/13 07:06:16;;;;;;;6.78;1.70;;;18.40;99.90;;;;;;5041244;28;20029;-50
2022/09/13 07:08:43;;;;;;;3.17;1.08;;;18.30;99.90;;;;;;5044253;28;20072;-44
2022/09/13 07:11:11;;;;;;;7.07;1.10;;;18.10;99.90;;;;;;5025144;28;20060;-49
2022/09/13 07:13:37;;;;;;;3.00;0.95;;;18.30;99.90;;;;;;5044281;28;20037;-46
2022/09/13 07:16:05;;;;;;;4.03;1.27;;;18.10;99.90;;;;;;5028681;28;20493;-46
2022/09/13 07:18:31;;;;;;;4.20;1.30;;;18.30;99.90;;;;;;5045494;28;20329;-45
2022/09/13 07:21:05;;;;;;;5.57;1.27;;;18.10;99.90;;;;;;5045021;28;20060;-47
2022/09/13 07:23:32;;;;;;;5.70;1.52;;;18.30;99.90;;;;;;5047102;28;20040;-49
2022/09/13 07:26:01;;;;;;;5.05;1.40;;;18.20;99.90;;;;;;5046000;28;20373;-46
2022/09/13 07:28:29;;;;;;;7.32;1.90;;;18.30;99.90;;;;;;5043832;28;20127;-49
2022/09/13 07:30:57;;;;;;;6.22;1.77;;;18.20;99.90;;;;;;5026644;28;20116;-44
2022/09/13 07:33:24;;;;;;;3.53;1.10;;;18.20;99.90;;;;;;5044797;28;20041;-48
2022/09/13 07:35:58;;;;;;;5.82;1.42;;;18.20;99.90;;;;;;5044120;28;20035;-48
2022/09/13 07:38:24;;;;;;;7.13;1.40;;;18.30;99.90;;;;;;5044173;28;20044;-46
2022/09/13 07:40:57;;;;;;;5.47;1.55;;;18.50;99.90;;;;;;5046170;28;20082;-46
2022/09/13 07:43:26;;;;;;;4.17;1.63;;;18.50;99.90;;;;;;5044556;28;20037;-47
2022/09/13 07:46:03;;;;;;;5.18;1.95;;;18.50;99.90;;;;;;5044154;28;20352;-46
2022/09/13 07:48:31;;;;;;;5.97;2.17;;;18.60;99.90;;;;;;5042994;28;20051;-47
2022/09/13 07:51:00;;;;;;;7.28;1.77;;;18.60;99.90;;;;;;5048200;28;20495;-44
2022/09/13 07:53:26;;;;;;;4.85;1.73;;;18.60;99.90;;;;;;5045795;28;20048;-47
2022/09/13 07:55:52;;;;;;;8.25;1.83;;;18.60;99.90;;;;;;5044673;28;20072;-46
2022/09/13 07:58:18;;;;;;;5.88;1.40;;;18.60;99.90;;;;;;5011969;28;20106;-47
2022/09/13 08:00:44;;;;;;;6.32;1.55;;;18.50;99.90;;;;;;5047911;28;20594;-47
2022/09/13 08:03:13;;;;;;;5.15;1.75;;;18.50;99.90;;;;;;5031909;28;20044;-48
2022/09/13 08:05:39;;;;;;;4.90;1.30;;;18.40;99.90;;;;;;5050121;28;20033;-46
2022/09/13 08:08:06;;;;;;;4.93;1.38;;;18.50;99.90;;;;;;5034041;28;20025;-46
2022/09/13 08:10:34;;;;;;;6.20;1.75;;;18.50;99.90;;;;;;5051924;28;20049;-45
2022/09/13 08:13:00;;;;;;;7.15;1.70;;;18.70;99.90;;;;;;5052069;28;20484;-46
2022/09/13 08:15:26;;;;;;;7.10;1.92;;;19.00;99.90;;;;;;5051633;28;20141;-49
2022/09/13 08:17:55;;;;;;;4.85;1.50;;;19.00;99.90;;;;;;5052265;28;20076;-48
2022/09/13 08:20:21;;;;;;;5.47;1.65;;;19.20;99.90;;;;;;5051865;28;20438;-47
2022/09/13 08:22:47;;;;;;;6.68;1.45;;;19.10;99.90;;;;;;5051968;28;20043;-50
2022/09/13 08:25:13;;;;;;;8.15;1.80;;;19.10;99.90;;;;;;5052154;28;20286;-48
2022/09/13 08:27:38;;;;;;;7.82;1.95;;;19.00;99.90;;;;;;5051915;28;20448;-46
2022/09/13 08:30:04;;;;;;;6.45;2.05;;;19.00;99.90;;;;;;5052288;28;20048;-45
2022/09/13 08:32:30;;;;;;;10.18;2.53;;;19.20;99.90;;;;;;5051555;28;20095;-46
2022/09/13 08:34:56;;;;;;;8.10;3.33;;;19.30;99.90;;;;;;5051158;28;20040;-46
2022/09/13 08:37:22;;;;;;;9.63;3.13;;;19.40;99.90;;;;;;5050665;28;20040;-45
2022/09/13 08:39:48;;;;;;;7.72;3.30;;;19.40;99.90;;;;;;5051779;28;20127;-47
2022/09/13 08:42:43;;;;;;;17.45;4.10;;;19.20;99.90;;;;;;5051475;28;20041;-47
2022/09/13 08:45:09;;;;;;;12.20;3.75;;;19.10;99.90;;;;;;5050230;28;20052;-45
2022/09/13 08:47:42;;;;;;;14.32;3.72;;;19.20;99.90;;;;;;5051747;28;20488;-48
2022/09/13 08:50:30;;;;;;;10.98;3.25;;;19.30;99.90;;;;;;5051762;28;20045;-48
2022/09/13 08:53:11;;;;;;;11.70;3.88;;;19.60;99.90;;;;;;5051275;28;20141;-48
2022/09/13 08:55:50;;;;;;;13.77;3.50;;;19.60;99.90;;;;;;5051203;28;20059;-48
2022/09/13 08:58:27;;;;;;;10.93;4.03;;;19.90;99.90;;;;;;5051743;28;20383;-45
2022/09/13 09:01:07;;;;;;;9.88;3.38;;;19.90;99.90;;;;;;5051643;28;20130;-46
2022/09/13 09:03:35;;;;;;;9.55;3.03;;;20.00;99.90;;;;;;5051542;28;20138;-48
2022/09/13 09:06:01;;;;;;;6.88;2.45;;;20.20;99.90;;;;;;5051042;28;20037;-47
2022/09/13 09:08:33;;;;;;;5.47;1.65;;;20.40;99.90;;;;;;5051454;28;20090;-45
2022/09/13 09:11:07;;;;;;;5.82;1.05;;;20.20;99.90;;;;;;5051270;28;20040;-50
2022/09/13 09:13:40;;;;;;;;;;;20.00;99.90;;;;;;5051052;28;20052;-50
2022/09/13 09:16:24;;;;;;;4.28;1.15;;;20.00;99.90;;;;;;5051254;28;20321;-44
2022/09/13 09:18:51;;;;;;;7.60;1.35;;;20.10;99.90;;;;;;5051266;28;20056;-46
2022/09/13 09:21:18;;;;;;;8.25;1.35;;;20.10;99.90;;;;;;5051411;28;20463;-48
2022/09/13 09:23:54;;;;;;;6.78;1.27;;;20.10;99.90;;;;;;5051223;28;20063;-45
2022/09/13 09:26:28;;;;;;;6.22;1.10;;;20.40;99.90;;;;;;5051088;28;20549;-45
2022/09/13 09:28:59;;;;;;;;;;;20.50;99.90;;;;;;5051246;28;20050;-47
2022/09/13 09:31:50;;;;;;;4.90;1.00;;;20.70;99.90;;;;;;5050827;28;19969;-47
2022/09/13 09:34:26;;;;;;;4.57;0.88;;;20.60;99.90;;;;;;5051055;28;20087;-46
2022/09/13 09:37:10;;;;;;;6.10;1.02;;;20.70;99.90;;;;;;5050813;28;20029;-49
2022/09/13 09:39:38;;;;;;;;;;;20.60;99.90;;;;;;5051515;28;20072;-49
2022/09/13 09:42:10;;;;;;;4.85;0.88;;;20.70;99.90;;;;;;5050658;28;19924;-47
2022/09/13 09:44:39;;;;;;;3.08;0.60;;;20.90;99.90;;;;;;5049668;28;20056;-49
2022/09/13 09:47:16;;;;;;;2.08;0.68;;;21.00;99.90;;;;;;5050944;28;20040;-46
2022/09/13 09:52:55;;;;;;;4.68;1.02;;;21.20;99.90;;;;;;5050598;28;20079;-45
2022/09/13 09:55:31;;;;;;;4.15;0.98;;;21.20;99.90;;;;;;5038111;28;20049;-44
2022/09/13 09:58:03;;;;;;;5.25;1.00;;;21.40;99.90;;;;;;5050716;28;20045;-46
2022/09/13 10:00:34;;;;;;;2.92;0.80;;;21.50;99.90;;;;;;5049441;28;20582;-49
2022/09/13 10:03:16;;;;;;;3.78;1.42;;;21.50;99.90;;;;;;5050650;28;20048;-47
2022/09/13 10:05:42;;;;;;;4.03;1.33;;;21.00;99.90;;;;;;5050672;28;20029;-45
2022/09/13 10:08:27;;;;;;;4.60;1.40;;;20.70;99.90;;;;;;5050509;28;20388;-47
2022/09/13 10:10:54;;;;;;;4.80;0.90;;;20.80;99.90;;;;;;5050514;28;20033;-46
2022/09/13 10:13:21;;;;;;;3.58;1.20;;;21.00;99.90;;;;;;5049881;28;20040;-46
2022/09/13 10:15:57;;;;;;;4.38;1.17;;;21.10;99.90;;;;;;5050308;28;20041;-45
2022/09/13 10:18:26;;;;;;;5.65;1.10;;;21.40;99.90;;;;;;5050689;28;20110;-49
2022/09/13 10:21:13;;;;;;;7.93;1.35;;;21.30;99.90;;;;;;5050138;28;20037;-50
2022/09/13 10:23:39;;;;;;;6.00;1.50;;;21.00;99.90;;;;;;5050601;28;20067;-47
2022/09/13 10:26:20;;;;;;;6.05;1.33;;;20.70;99.90;;;;;;5050480;28;20044;-47
2022/09/13 10:28:58;;;;;;;4.95;1.27;;;20.80;99.90;;;;;;5048766;28;20045;-45
2022/09/13 10:31:37;;;;;;;4.68;0.90;;;21.00;99.90;;;;;;5050319;28;20500;-48
2022/09/13 10:34:10;;;;;;;4.57;0.75;;;21.10;99.90;;;;;;5049890;28;20036;-46
2022/09/13 10:36:36;;;;;;;5.20;0.90;;;20.90;99.90;;;;;;5050004;28;20040;-45
2022/09/13 10:39:16;;;;;;;4.15;0.70;;;21.10;99.90;;;;;;5050448;28;20112;-45
2022/09/13 10:41:59;;;;;;;4.25;0.60;;;21.30;99.90;;;;;;5050058;28;20037;-44
2022/09/13 10:44:32;;;;;;;4.05;0.75;;;21.40;99.90;;;;;;5050443;28;20115;-49
2022/09/13 10:47:02;;;;;;;2.35;0.65;;;21.60;99.90;;;;;;5050395;28;20392;-49
2022/09/13 10:49:34;;;;;;;2.75;0.50;;;21.50;99.90;;;;;;5050119;28;20068;-48
2022/09/13 10:52:00;;;;;;;3.67;0.50;;;21.60;99.90;;;;;;5050270;28;20059;-47
2022/09/13 10:54:26;;;;;;;2.83;0.70;;;21.60;99.90;;;;;;5050327;28;20460;-46
2022/09/13 10:56:52;;;;;;;3.35;0.68;;;21.70;99.90;;;;;;5053436;28;20041;-46
2022/09/13 10:59:29;;;;;;;3.90;0.50;;;21.80;99.90;;;;;;5053835;28;20043;-48
2022/09/13 11:02:27;;;;;;;4.28;0.90;;;22.10;99.90;;;;;;5053811;28;20082;-50
2022/09/13 11:05:05;;;;;;;2.97;0.70;;;21.90;99.90;;;;;;5053652;28;20049;-46
2022/09/13 11:08:15;;;;;;;2.88;0.70;;;22.00;99.90;;;;;;5053452;28;20449;-50
2022/09/13 11:11:13;;;;;;;5.18;1.05;;;22.00;99.90;;;;;;5053646;28;20116;-46
2022/09/13 11:13:44;;;;;;;4.40;0.80;;;21.90;99.90;;;;;;5053039;28;20053;-48
2022/09/13 11:16:39;;;;;;;4.82;0.93;;;21.80;99.90;;;;;;5053664;28;20037;-48
2022/09/13 11:19:42;;;;;;;7.07;1.20;;;22.20;99.90;;;;;;5053485;28;20184;-46
2022/09/13 11:22:17;;;;;;;6.55;1.23;;;22.20;99.90;;;;;;5053573;28;20095;-47
2022/09/13 11:24:52;;;;;;;4.95;1.20;;;21.90;99.90;;;;;;5053469;28;20132;-47
2022/09/13 11:27:32;;;;;;;2.72;0.80;;;21.70;99.90;;;;;;5052979;28;20032;-48
2022/09/13 11:30:17;;;;;;;4.60;1.00;;;21.70;99.90;;;;;;5053283;28;20045;-47
2022/09/13 11:32:56;;;;;;;6.28;1.00;;;22.00;99.90;;;;;;5053339;28;20040;-47
2022/09/13 11:36:07;;;;;;;4.45;0.98;;;22.00;99.90;;;;;;5052944;28;20049;-47
2022/09/13 11:38:35;;;;;;;5.03;1.10;;;22.10;99.90;;;;;;5052047;28;20076;-49
2022/09/13 11:41:21;;;;;;;5.35;0.90;;;22.20;99.90;;;;;;5053021;28;20461;-46
2022/09/13 11:44:20;;;;;;;7.47;1.10;;;22.50;99.90;;;;;;5052577;28;20037;-47
2022/09/13 11:46:55;;;;;;;6.22;1.10;;;22.40;99.90;;;;;;5052867;28;20044;-49
2022/09/13 11:49:58;;;;;;;7.15;0.90;;;22.50;99.90;;;;;;5053098;28;20051;-45
2022/09/13 11:52:45;;;;;;;4.38;0.80;;;22.70;99.90;;;;;;5052958;28;20053;-49
2022/09/13 11:55:24;;;;;;;4.10;0.60;;;22.50;99.90;;;;;;5052644;28;20037;-46
2022/09/13 11:57:54;;;;;;;9.07;1.00;;;22.40;99.90;;;;;;5052542;28;20090;-47
2022/09/13 12:00:22;;;;;;;3.58;0.80;;;22.50;99.90;;;;;;5051338;28;20387;-45
2022/09/13 12:02:58;;;;;;;8.77;0.90;;;22.40;99.90;;;;;;5052746;28;20036;-49
2022/09/13 12:05:30;;;;;;;5.07;1.08;;;22.70;99.90;;;;;;5052638;28;20099;-46
2022/09/13 12:07:58;;;;;;;4.32;0.60;;;22.80;99.90;;;;;;5049987;28;20049;-47
2022/09/13 12:10:47;;;;;;;3.97;0.50;;;22.90;99.90;;;;;;5052258;28;20049;-47
2022/09/13 12:13:36;;;;;;;4.45;0.63;;;22.80;99.10;;;;;;5051630;28;20044;-49
2022/09/13 12:16:05;;;;;;;5.03;0.70;;;23.20;99.00;;;;;;5051669;28;20091;-48
2022/09/13 12:18:45;;;;;;;4.45;0.73;;;23.40;99.70;;;;;;5052432;28;20043;-46
2022/09/13 12:21:15;;;;;;;5.55;0.80;;;23.00;99.30;;;;;;5052474;28;20112;-47
2022/09/13 12:24:03;;;;;;;5.43;1.05;;;23.00;99.90;;;;;;5052244;28;20379;-47
2022/09/13 12:26:31;;;;;;;6.38;0.77;;;23.20;99.00;;;;;;5052483;28;20033;-47
2022/09/13 12:29:06;;;;;;;2.20;0.40;;;23.40;99.30;;;;;;5052055;28;20506;-48
2022/09/13 12:31:31;;;;;;;4.50;0.80;;;23.30;98.70;;;;;;5052368;28;20040;-46
2022/09/13 12:33:59;;;;;;;4.20;0.80;;;23.30;99.30;;;;;;5052076;28;20033;-47
2022/09/13 12:37:22;;;;;;;5.35;1.00;;;23.30;99.90;;;;;;5051630;28;20037;-47
2022/09/13 12:40:00;;;;;;;4.88;0.88;;;23.40;98.40;;;;;;4970691;28;20030;-47
2022/09/13 12:42:52;;;;;;;5.75;1.02;;;23.40;99.60;;;;;;4954328;28;20058;-48
2022/09/13 12:45:35;;;;;;;4.65;0.73;;;23.10;98.20;;;;;;5028744;28;20045;-49
2022/09/13 12:48:22;;;;;;;6.13;0.80;;;23.10;99.00;;;;;;5051972;28;20037;-45
2022/09/13 12:51:21;;;;;;;5.10;0.82;;;23.00;99.60;;;;;;5051702;28;20145;-46
2022/09/13 12:54:32;;;;;;;3.83;0.85;;;23.10;99.10;;;;;;5051729;28;20476;-48
2022/09/13 12:57:27;;;;;;;4.70;0.98;;;23.10;98.70;;;;;;5050135;28;20391;-45
2022/09/13 13:00:01;;;;;;;4.95;0.88;;;23.30;97.80;;;;;;5048637;28;20057;-48
2022/09/13 13:02:30;;;;;;;4.28;0.63;;;23.50;98.10;;;;;;5051533;28;20388;-47
2022/09/13 13:05:01;;;;;;;5.18;0.55;;;23.40;98.00;;;;;;5051494;28;20068;-48
2022/09/13 13:07:29;;;;;;;2.85;0.65;;;23.30;97.50;;;;;;5051179;28;20044;-45
2022/09/13 13:09:56;;;;;;;3.42;0.80;;;23.40;96.80;;;;;;5051199;28;20081;-46
2022/09/13 13:12:36;;;;;;;3.92;0.65;;;23.60;96.80;;;;;;5050629;28;20045;-47